< < Back
Terminal Aerodrome Forecast


Current Version              Previous Versions:   1  2  3  4  5  6  7  8  9  

Terminal Aerodrome Forecast

317
FTUS44 KOHX 230500
TAFCSV
TAF
KCSV 230528Z 2306/2406 03004KT P6SM FEW028=

Latest METAR

242
SAUS70 KWBC 240900 RRA
MTRCSV
METAR KCSV 240853Z AUTO 00000KT 10SM CLR 08/05 A3011 RMK AO2 SLP190
T00780050 53002


USA.gov is the U.S. government's official web portal to all federal, state and local government web resources and services.